sensor_id;sensor_type;location;lat;lon;timestamp;temperature;humidity
21540;DHT22;10931;52.164;5.518;2023-03-01T01:04:14;16.70;57.20
21540;DHT22;10931;52.164;5.518;2023-03-01T01:07:03;16.70;57.10
21540;DHT22;10931;52.164;5.518;2023-03-01T01:09:57;16.70;57.10
21540;DHT22;10931;52.164;5.518;2023-03-01T01:16:05;16.70;57.20
21540;DHT22;10931;52.164;5.518;2023-03-01T01:22:50;16.60;57.10
21540;DHT22;10931;52.164;5.518;2023-03-01T01:25:58;16.60;57.10
21540;DHT22;10931;52.164;5.518;2023-03-01T04:46:28;15.70;57.10
21540;DHT22;10931;52.164;5.518;2023-03-01T04:48:57;15.60;57.10
21540;DHT22;10931;52.164;5.518;2023-03-01T04:51:46;15.60;57.10
21540;DHT22;10931;52.164;5.518;2023-03-01T04:54:14;15.60;57.10
21540;DHT22;10931;52.164;5.518;2023-03-01T04:57:13;15.60;57.20
21540;DHT22;10931;52.164;5.518;2023-03-01T04:59:38;15.60;57.10
21540;DHT22;10931;52.164;5.518;2023-03-01T05:08:39;15.60;57.10
21540;DHT22;10931;52.164;5.518;2023-03-01T05:11:16;15.60;57.10
21540;DHT22;10931;52.164;5.518;2023-03-01T05:17:50;15.50;57.00
21540;DHT22;10931;52.164;5.518;2023-03-01T05:20:30;15.50;57.00
21540;DHT22;10931;52.164;5.518;2023-03-01T05:23:16;15.50;57.10
21540;DHT22;10931;52.164;5.518;2023-03-01T05:29:14;15.50;57.00
21540;DHT22;10931;52.164;5.518;2023-03-01T05:32:00;15.50;57.10
21540;DHT22;10931;52.164;5.518;2023-03-01T05:34:36;15.40;57.00
21540;DHT22;10931;52.164;5.518;2023-03-01T05:37:20;15.40;57.00
21540;DHT22;10931;52.164;5.518;2023-03-01T07:39:53;14.90;57.00
21540;DHT22;10931;52.164;5.518;2023-03-01T07:42:22;14.90;57.00
21540;DHT22;10931;52.164;5.518;2023-03-01T07:44:48;14.90;57.00
21540;DHT22;10931;52.164;5.518;2023-03-01T07:47:37;14.90;57.00
21540;DHT22;10931;52.164;5.518;2023-03-01T07:50:03;14.90;57.00
21540;DHT22;10931;52.164;5.518;2023-03-01T07:52:44;14.90;57.00
21540;DHT22;10931;52.164;5.518;2023-03-01T07:55:16;14.90;57.00
21540;DHT22;10931;52.164;5.518;2023-03-01T07:57:48;14.80;57.00
21540;DHT22;10931;52.164;5.518;2023-03-01T08:00:16;14.80;57.00
21540;DHT22;10931;52.164;5.518;2023-03-01T08:02:44;14.80;57.00
21540;DHT22;10931;52.164;5.518;2023-03-01T08:05:16;14.80;57.00
21540;DHT22;10931;52.164;5.518;2023-03-01T08:07:50;14.80;57.00
21540;DHT22;10931;52.164;5.518;2023-03-01T08:10:16;14.80;57.00
21540;DHT22;10931;52.164;5.518;2023-03-01T08:12:44;14.80;57.00
21540;DHT22;10931;52.164;5.518;2023-03-01T08:15:18;14.80;57.00
21540;DHT22;10931;52.164;5.518;2023-03-01T08:24:10;14.80;57.00
21540;DHT22;10931;52.164;5.518;2023-03-01T08:26:44;14.80;57.00
21540;DHT22;10931;52.164;5.518;2023-03-01T08:29:13;14.70;57.00
21540;DHT22;10931;52.164;5.518;2023-03-01T08:31:41;14.70;57.00
21540;DHT22;10931;52.164;5.518;2023-03-01T08:34:14;14.70;57.00
21540;DHT22;10931;52.164;5.518;2023-03-01T08:36:45;14.70;57.00
21540;DHT22;10931;52.164;5.518;2023-03-01T08:39:13;14.70;57.00
21540;DHT22;10931;52.164;5.518;2023-03-01T08:41:39;14.70;57.00
21540;DHT22;10931;52.164;5.518;2023-03-01T08:44:05;14.70;57.00
21540;DHT22;10931;52.164;5.518;2023-03-01T08:46:39;14.70;57.00
21540;DHT22;10931;52.164;5.518;2023-03-01T08:49:15;14.70;57.00
21540;DHT22;10931;52.164;5.518;2023-03-01T08:51:42;14.70;57.00
21540;DHT22;10931;52.164;5.518;2023-03-01T08:54:19;14.70;57.10
21540;DHT22;10931;52.164;5.518;2023-03-01T08:56:46;14.70;57.00
21540;DHT22;10931;52.164;5.518;2023-03-01T08:59:17;14.70;57.00
21540;DHT22;10931;52.164;5.518;2023-03-01T09:01:53;14.70;57.10
21540;DHT22;10931;52.164;5.518;2023-03-01T09:04:33;14.70;57.00
21540;DHT22;10931;52.164;5.518;2023-03-01T09:07:02;14.60;57.00
21540;DHT22;10931;52.164;5.518;2023-03-01T09:09:30;14.70;57.00
21540;DHT22;10931;52.164;5.518;2023-03-01T09:12:21;14.70;57.10
21540;DHT22;10931;52.164;5.518;2023-03-01T09:14:54;14.60;57.00
21540;DHT22;10931;52.164;5.518;2023-03-01T09:17:22;14.60;57.00
21540;DHT22;10931;52.164;5.518;2023-03-01T09:19:56;14.60;57.00
21540;DHT22;10931;52.164;5.518;2023-03-01T09:22:22;14.60;57.00
21540;DHT22;10931;52.164;5.518;2023-03-01T09:24:47;14.60;57.00
21540;DHT22;10931;52.164;5.518;2023-03-01T09:27:13;14.60;57.00
21540;DHT22;10931;52.164;5.518;2023-03-01T09:29:53;14.60;57.00
21540;DHT22;10931;52.164;5.518;2023-03-01T09:32:25;14.60;57.00
21540;DHT22;10931;52.164;5.518;2023-03-01T09:34:53;14.60;57.00
21540;DHT22;10931;52.164;5.518;2023-03-01T09:37:35;14.60;57.00
21540;DHT22;10931;52.164;5.518;2023-03-01T09:40:02;14.60;57.00
21540;DHT22;10931;52.164;5.518;2023-03-01T09:42:35;14.60;57.00
21540;DHT22;10931;52.164;5.518;2023-03-01T09:45:05;14.60;57.00
21540;DHT22;10931;52.164;5.518;2023-03-01T09:47:37;14.60;57.00
21540;DHT22;10931;52.164;5.518;2023-03-01T09:53:01;14.60;57.00
21540;DHT22;10931;52.164;5.518;2023-03-01T09:55:33;14.60;57.00
21540;DHT22;10931;52.164;5.518;2023-03-01T09:58:25;14.60;57.00
21540;DHT22;10931;52.164;5.518;2023-03-01T10:00:59;14.60;57.00
21540;DHT22;10931;52.164;5.518;2023-03-01T10:03:28;14.60;57.00
21540;DHT22;10931;52.164;5.518;2023-03-01T10:06:34;14.60;57.00
21540;DHT22;10931;52.164;5.518;2023-03-01T10:09:10;14.60;57.00
21540;DHT22;10931;52.164;5.518;2023-03-01T10:11:41;14.60;57.00
21540;DHT22;10931;52.164;5.518;2023-03-01T10:14:33;14.60;57.00
21540;DHT22;10931;52.164;5.518;2023-03-01T10:17:12;14.50;57.00
21540;DHT22;10931;52.164;5.518;2023-03-01T10:19:44;14.60;57.00
21540;DHT22;10931;52.164;5.518;2023-03-01T10:22:22;14.50;56.90
21540;DHT22;10931;52.164;5.518;2023-03-01T10:24:53;14.60;57.00
21540;DHT22;10931;52.164;5.518;2023-03-01T10:30:39;14.60;57.00
21540;DHT22;10931;52.164;5.518;2023-03-01T10:33:21;14.60;57.00
21540;DHT22;10931;52.164;5.518;2023-03-01T10:35:47;14.60;57.00
21540;DHT22;10931;52.164;5.518;2023-03-01T10:38:16;14.60;56.90
21540;DHT22;10931;52.164;5.518;2023-03-01T10:40:57;14.60;56.90
21540;DHT22;10931;52.164;5.518;2023-03-01T10:43:31;14.60;56.90
21540;DHT22;10931;52.164;5.518;2023-03-01T10:46:29;14.60;56.90
21540;DHT22;10931;52.164;5.518;2023-03-01T10:49:06;14.60;57.00
21540;DHT22;10931;52.164;5.518;2023-03-01T10:51:35;14.60;56.90
21540;DHT22;10931;52.164;5.518;2023-03-01T10:54:33;14.60;56.90
21540;DHT22;10931;52.164;5.518;2023-03-01T10:57:01;14.60;56.90
21540;DHT22;10931;52.164;5.518;2023-03-01T10:59:34;14.60;56.90
21540;DHT22;10931;52.164;5.518;2023-03-01T11:04:35;14.70;56.90
21540;DHT22;10931;52.164;5.518;2023-03-01T11:07:06;14.70;56.90
21540;DHT22;10931;52.164;5.518;2023-03-01T11:09:45;14.70;56.90
21540;DHT22;10931;52.164;5.518;2023-03-01T11:15:00;14.70;56.80
21540;DHT22;10931;52.164;5.518;2023-03-01T11:17:29;14.70;56.80
21540;DHT22;10931;52.164;5.518;2023-03-01T11:22:49;14.70;56.70
21540;DHT22;10931;52.164;5.518;2023-03-01T11:25:38;14.70;56.70
21540;DHT22;10931;52.164;5.518;2023-03-01T11:28:14;14.70;56.70
21540;DHT22;10931;52.164;5.518;2023-03-01T11:31:05;14.70;56.70
21540;DHT22;10931;52.164;5.518;2023-03-01T11:34:05;14.80;56.70
21540;DHT22;10931;52.164;5.518;2023-03-01T11:36:58;14.80;56.70
21540;DHT22;10931;52.164;5.518;2023-03-01T11:39:37;14.80;56.70
21540;DHT22;10931;52.164;5.518;2023-03-01T11:42:28;14.80;56.70
21540;DHT22;10931;52.164;5.518;2023-03-01T11:45:10;14.80;56.70
21540;DHT22;10931;52.164;5.518;2023-03-01T11:48:01;14.80;56.70
21540;DHT22;10931;52.164;5.518;2023-03-01T11:50:41;14.80;56.70
21540;DHT22;10931;52.164;5.518;2023-03-01T12:18:27;15.00;56.60
21540;DHT22;10931;52.164;5.518;2023-03-01T12:21:35;15.00;56.60
21540;DHT22;10931;52.164;5.518;2023-03-01T12:39:42;15.50;57.20
21540;DHT22;10931;52.164;5.518;2023-03-01T12:42:38;15.60;57.30
21540;DHT22;10931;52.164;5.518;2023-03-01T12:48:43;15.90;57.40
21540;DHT22;10931;52.164;5.518;2023-03-01T12:51:14;16.10;57.50
21540;DHT22;10931;52.164;5.518;2023-03-01T12:53:54;16.20;57.40
21540;DHT22;10931;52.164;5.518;2023-03-01T12:56:35;16.40;57.50
21540;DHT22;10931;52.164;5.518;2023-03-01T12:59:34;16.50;57.50
21540;DHT22;10931;52.164;5.518;2023-03-01T13:02:26;16.60;57.50
21540;DHT22;10931;52.164;5.518;2023-03-01T13:05:19;16.80;57.50
21540;DHT22;10931;52.164;5.518;2023-03-01T13:08:36;16.90;57.50
21540;DHT22;10931;52.164;5.518;2023-03-01T13:11:27;17.10;57.50
21540;DHT22;10931;52.164;5.518;2023-03-01T13:20:13;17.50;57.40
21540;DHT22;10931;52.164;5.518;2023-03-01T13:22:40;17.70;57.50
21540;DHT22;10931;52.164;5.518;2023-03-01T13:28:57;17.90;57.40
21540;DHT22;10931;52.164;5.518;2023-03-01T13:34:43;18.10;57.30
21540;DHT22;10931;52.164;5.518;2023-03-01T13:37:21;18.20;57.30
21540;DHT22;10931;52.164;5.518;2023-03-01T13:43:45;18.30;57.20
21540;DHT22;10931;52.164;5.518;2023-03-01T13:46:23;18.40;57.20
21540;DHT22;10931;52.164;5.518;2023-03-01T13:49:02;18.50;57.20
21540;DHT22;10931;52.164;5.518;2023-03-01T13:51:31;18.50;57.20
21540;DHT22;10931;52.164;5.518;2023-03-01T13:54:11;18.60;57.20
21540;DHT22;10931;52.164;5.518;2023-03-01T13:56:40;18.60;57.20
21540;DHT22;10931;52.164;5.518;2023-03-01T13:59:18;18.70;57.20
21540;DHT22;10931;52.164;5.518;2023-03-01T14:02:02;18.70;57.20
21540;DHT22;10931;52.164;5.518;2023-03-01T14:04:31;18.80;57.20
21540;DHT22;10931;52.164;5.518;2023-03-01T14:07:50;18.80;57.20
21540;DHT22;10931;52.164;5.518;2023-03-01T14:10:49;18.80;57.10
21540;DHT22;10931;52.164;5.518;2023-03-01T14:22:45;19.00;57.00
21540;DHT22;10931;52.164;5.518;2023-03-01T14:25:45;19.00;57.00
21540;DHT22;10931;52.164;5.518;2023-03-01T14:28:34;19.00;57.00
21540;DHT22;10931;52.164;5.518;2023-03-01T14:31:39;19.00;56.90
21540;DHT22;10931;52.164;5.518;2023-03-01T14:34:24;19.00;56.90
21540;DHT22;10931;52.164;5.518;2023-03-01T14:37:25;19.10;56.90
21540;DHT22;10931;52.164;5.518;2023-03-01T14:39:54;19.10;56.80
21540;DHT22;10931;52.164;5.518;2023-03-01T14:49:34;19.10;56.70
21540;DHT22;10931;52.164;5.518;2023-03-01T14:52:37;19.20;56.70
21540;DHT22;10931;52.164;5.518;2023-03-01T14:55:27;19.20;56.80
21540;DHT22;10931;52.164;5.518;2023-03-01T14:58:21;19.20;56.70
21540;DHT22;10931;52.164;5.518;2023-03-01T15:00:52;19.20;56.70
21540;DHT22;10931;52.164;5.518;2023-03-01T15:06:54;19.20;56.60
21540;DHT22;10931;52.164;5.518;2023-03-01T15:09:27;19.30;56.70
21540;DHT22;10931;52.164;5.518;2023-03-01T15:15:18;19.30;56.70
21540;DHT22;10931;52.164;5.518;2023-03-01T15:21:09;19.30;56.70
21540;DHT22;10931;52.164;5.518;2023-03-01T15:24:15;19.40;56.80
21540;DHT22;10931;52.164;5.518;2023-03-01T15:27:12;19.40;56.70
21540;DHT22;10931;52.164;5.518;2023-03-01T15:29:58;19.40;56.80
21540;DHT22;10931;52.164;5.518;2023-03-01T15:32:37;19.40;56.70
21540;DHT22;10931;52.164;5.518;2023-03-01T15:38:50;19.40;56.80
21540;DHT22;10931;52.164;5.518;2023-03-01T15:41:46;19.50;56.80
21540;DHT22;10931;52.164;5.518;2023-03-01T15:44:34;19.50;56.80
21540;DHT22;10931;52.164;5.518;2023-03-01T15:47:29;19.50;56.80
21540;DHT22;10931;52.164;5.518;2023-03-01T15:49:55;19.50;56.80
21540;DHT22;10931;52.164;5.518;2023-03-01T15:52:35;19.60;56.90
21540;DHT22;10931;52.164;5.518;2023-03-01T15:55:14;19.60;56.90
21540;DHT22;10931;52.164;5.518;2023-03-01T15:57:50;19.60;56.90
21540;DHT22;10931;52.164;5.518;2023-03-01T16:00:34;19.60;56.90
21540;DHT22;10931;52.164;5.518;2023-03-01T16:03:06;19.60;56.90
21540;DHT22;10931;52.164;5.518;2023-03-01T16:05:34;19.70;56.90
21540;DHT22;10931;52.164;5.518;2023-03-01T16:08:02;19.70;56.90
21540;DHT22;10931;52.164;5.518;2023-03-01T16:10:28;19.70;56.90
21540;DHT22;10931;52.164;5.518;2023-03-01T16:12:55;19.70;56.90
21540;DHT22;10931;52.164;5.518;2023-03-01T16:15:30;19.70;56.90
21540;DHT22;10931;52.164;5.518;2023-03-01T16:17:59;19.70;56.90
21540;DHT22;10931;52.164;5.518;2023-03-01T16:20:29;19.70;56.90
21540;DHT22;10931;52.164;5.518;2023-03-01T16:22:59;19.70;56.90
21540;DHT22;10931;52.164;5.518;2023-03-01T16:25:31;19.70;56.90
21540;DHT22;10931;52.164;5.518;2023-03-01T16:28:01;19.70;56.90
21540;DHT22;10931;52.164;5.518;2023-03-01T16:30:32;19.80;57.00
21540;DHT22;10931;52.164;5.518;2023-03-01T16:33:00;19.80;57.00
21540;DHT22;10931;52.164;5.518;2023-03-01T16:35:31;19.80;57.00
21540;DHT22;10931;52.164;5.518;2023-03-01T16:38:05;19.80;57.00
21540;DHT22;10931;52.164;5.518;2023-03-01T16:40:31;19.80;57.00
21540;DHT22;10931;52.164;5.518;2023-03-01T16:43:23;19.80;57.00
21540;DHT22;10931;52.164;5.518;2023-03-01T16:45:51;19.80;57.00
21540;DHT22;10931;52.164;5.518;2023-03-01T16:48:38;19.80;57.00
21540;DHT22;10931;52.164;5.518;2023-03-01T16:51:05;19.80;57.00
21540;DHT22;10931;52.164;5.518;2023-03-01T16:53:32;19.80;57.00
21540;DHT22;10931;52.164;5.518;2023-03-01T16:56:03;19.80;57.00
21540;DHT22;10931;52.164;5.518;2023-03-01T16:58:34;19.80;56.90
21540;DHT22;10931;52.164;5.518;2023-03-01T17:01:18;19.80;56.90
21540;DHT22;10931;52.164;5.518;2023-03-01T17:03:58;19.80;56.90
21540;DHT22;10931;52.164;5.518;2023-03-01T17:06:23;19.80;56.90
21540;DHT22;10931;52.164;5.518;2023-03-01T17:08:51;19.80;56.90
21540;DHT22;10931;52.164;5.518;2023-03-01T17:11:19;19.80;56.90
21540;DHT22;10931;52.164;5.518;2023-03-01T17:13:45;19.80;56.90
21540;DHT22;10931;52.164;5.518;2023-03-01T17:16:14;19.80;56.90
21540;DHT22;10931;52.164;5.518;2023-03-01T17:18:41;19.80;56.90
21540;DHT22;10931;52.164;5.518;2023-03-01T17:21:08;19.70;56.80
21540;DHT22;10931;52.164;5.518;2023-03-01T17:23:35;19.80;56.90
21540;DHT22;10931;52.164;5.518;2023-03-01T17:26:02;19.80;56.80
21540;DHT22;10931;52.164;5.518;2023-03-01T17:28:30;19.70;56.70
21540;DHT22;10931;52.164;5.518;2023-03-01T17:31:06;19.70;56.70
21540;DHT22;10931;52.164;5.518;2023-03-01T17:33:32;19.70;56.70
21540;DHT22;10931;52.164;5.518;2023-03-01T17:36:07;19.70;56.70
21540;DHT22;10931;52.164;5.518;2023-03-01T17:38:33;19.60;56.60
21540;DHT22;10931;52.164;5.518;2023-03-01T17:41:03;19.70;56.70
21540;DHT22;10931;52.164;5.518;2023-03-01T17:43:33;19.70;56.70
21540;DHT22;10931;52.164;5.518;2023-03-01T17:46:05;19.60;56.60
21540;DHT22;10931;52.164;5.518;2023-03-01T17:48:37;19.60;56.60
21540;DHT22;10931;52.164;5.518;2023-03-01T17:51:07;19.60;56.60
21540;DHT22;10931;52.164;5.518;2023-03-01T17:53:34;19.60;56.60
21540;DHT22;10931;52.164;5.518;2023-03-01T17:56:02;19.60;56.60
21540;DHT22;10931;52.164;5.518;2023-03-01T17:58:28;19.50;56.60
21540;DHT22;10931;52.164;5.518;2023-03-01T18:00:54;19.50;56.60
21540;DHT22;10931;52.164;5.518;2023-03-01T18:03:20;19.40;56.60
21540;DHT22;10931;52.164;5.518;2023-03-01T18:05:46;19.40;56.50
21540;DHT22;10931;52.164;5.518;2023-03-01T18:08:15;19.40;56.60
21540;DHT22;10931;52.164;5.518;2023-03-01T18:10:44;19.40;56.60
21540;DHT22;10931;52.164;5.518;2023-03-01T18:13:10;19.40;56.60
21540;DHT22;10931;52.164;5.518;2023-03-01T18:15:39;19.40;56.60
21540;DHT22;10931;52.164;5.518;2023-03-01T18:18:05;19.40;56.60
21540;DHT22;10931;52.164;5.518;2023-03-01T18:20:31;19.30;56.50
21540;DHT22;10931;52.164;5.518;2023-03-01T18:23:28;19.30;56.50
21540;DHT22;10931;52.164;5.518;2023-03-01T18:26:07;19.30;56.50
21540;DHT22;10931;52.164;5.518;2023-03-01T18:28:36;19.30;56.50
21540;DHT22;10931;52.164;5.518;2023-03-01T18:31:08;19.20;56.50
21540;DHT22;10931;52.164;5.518;2023-03-01T18:33:38;19.20;56.50
21540;DHT22;10931;52.164;5.518;2023-03-01T18:36:19;19.20;56.50
21540;DHT22;10931;52.164;5.518;2023-03-01T18:38:45;19.20;56.50
21540;DHT22;10931;52.164;5.518;2023-03-01T18:41:11;19.10;57.10
21540;DHT22;10931;52.164;5.518;2023-03-01T18:43:37;19.10;56.50
21540;DHT22;10931;52.164;5.518;2023-03-01T18:46:06;19.10;56.50
21540;DHT22;10931;52.164;5.518;2023-03-01T18:48:32;19.10;56.50
21540;DHT22;10931;52.164;5.518;2023-03-01T18:51:21;19.10;56.50
21540;DHT22;10931;52.164;5.518;2023-03-01T18:54:02;19.00;56.50
21540;DHT22;10931;52.164;5.518;2023-03-01T18:56:32;19.00;56.50
21540;DHT22;10931;52.164;5.518;2023-03-01T18:59:08;19.00;56.50
21540;DHT22;10931;52.164;5.518;2023-03-01T19:01:49;19.00;56.50
21540;DHT22;10931;52.164;5.518;2023-03-01T20:03:47;18.50;56.70
21540;DHT22;10931;52.164;5.518;2023-03-01T23:18:46;17.30;56.70
21540;DHT22;10931;52.164;5.518;2023-03-01T23:21:17;17.30;56.70
21540;DHT22;10931;52.164;5.518;2023-03-01T23:23:44;17.30;56.70
21540;DHT22;10931;52.164;5.518;2023-03-01T23:26:13;17.30;56.70
21540;DHT22;10931;52.164;5.518;2023-03-01T23:28:39;17.30;56.70
21540;DHT22;10931;52.164;5.518;2023-03-01T23:31:10;17.30;56.70
21540;DHT22;10931;52.164;5.518;2023-03-01T23:33:41;17.30;56.70
21540;DHT22;10931;52.164;5.518;2023-03-01T23:36:30;17.20;56.70
21540;DHT22;10931;52.164;5.518;2023-03-01T23:39:01;17.30;56.80
21540;DHT22;10931;52.164;5.518;2023-03-01T23:41:33;17.20;56.70
21540;DHT22;10931;52.164;5.518;2023-03-01T23:44:00;17.20;56.70
21540;DHT22;10931;52.164;5.518;2023-03-01T23:46:34;17.20;56.70
21540;DHT22;10931;52.164;5.518;2023-03-01T23:49:10;17.20;56.70
21540;DHT22;10931;52.164;5.518;2023-03-01T23:51:43;17.20;56.70
21540;DHT22;10931;52.164;5.518;2023-03-01T23:54:10;17.20;56.70
21540;DHT22;10931;52.164;5.518;2023-03-01T23:56:41;17.10;56.70
21540;DHT22;10931;52.164;5.518;2023-03-01T23:59:13;17.20;56.80
